Time;durP1;ratioP1;P1;durP2;ratioP2;P2;SDS_P1;SDS_P2;PMS_P1;PMS_P2;Temp;Humidity;BMP_temperature;BMP_pressure;BME280_temperature;BME280_humidity;BME280_pressure;Samples;Min_cycle;Max_cycle;Signal;HPM_P1;HPM_P2
2021/09/10 00:01:08;;;;;;;6.53;4.30;;;23.70;56.00;;;;;;4930366;29;20749;-72
2021/09/10 00:03:34;;;;;;;4.68;3.88;;;23.60;56.00;;;;;;4929335;29;20398;-67
2021/09/10 00:05:59;;;;;;;5.00;4.30;;;23.60;56.00;;;;;;4930663;29;20403;-71
2021/09/10 00:08:25;;;;;;;5.73;4.67;;;23.60;56.00;;;;;;4930735;29;20499;-68
2021/09/10 00:10:51;;;;;;;4.90;4.13;;;23.60;56.00;;;;;;4931264;29;20446;-71
2021/09/10 00:13:17;;;;;;;5.20;4.20;;;23.60;56.00;;;;;;4930696;29;20407;-71
2021/09/10 00:15:42;;;;;;;6.13;4.43;;;23.60;56.00;;;;;;4945040;28;20395;-70
2021/09/10 00:18:08;;;;;;;6.00;4.37;;;23.60;56.00;;;;;;4930495;29;20788;-69
2021/09/10 00:20:33;;;;;;;4.88;4.38;;;23.60;55.90;;;;;;4931182;29;20403;-71
2021/09/10 00:22:59;;;;;;;4.17;3.77;;;23.60;55.90;;;;;;4931107;29;20387;-70
2021/09/10 00:25:27;;;;;;;4.63;4.10;;;23.60;55.90;;;;;;4930384;29;20523;-67
2021/09/10 00:27:52;;;;;;;4.80;4.30;;;23.60;55.90;;;;;;4930906;29;20481;-71
2021/09/10 00:30:18;;;;;;;4.65;4.18;;;23.60;55.90;;;;;;4930637;29;20395;-69
2021/09/10 00:32:44;;;;;;;4.82;4.30;;;23.60;55.90;;;;;;4931141;29;20884;-71
2021/09/10 00:35:11;;;;;;;4.60;4.20;;;23.60;55.80;;;;;;4930993;29;20395;-71
2021/09/10 00:37:37;;;;;;;4.95;4.43;;;23.60;55.90;;;;;;4930665;29;20427;-71
2021/09/10 00:40:05;;;;;;;5.00;4.50;;;23.60;55.80;;;;;;4931018;29;20407;-71
2021/09/10 00:42:30;;;;;;;5.35;4.60;;;23.60;55.80;;;;;;4930871;29;20410;-67
2021/09/10 00:44:57;;;;;;;5.00;4.17;;;23.60;55.80;;;;;;4931012;29;20403;-68
2021/09/10 00:47:23;;;;;;;5.05;4.13;;;23.60;55.80;;;;;;4930849;29;20411;-67
2021/09/10 00:49:50;;;;;;;5.07;4.32;;;23.60;55.80;;;;;;4930712;29;20399;-71
2021/09/10 00:52:17;;;;;;;4.60;4.15;;;23.50;55.70;;;;;;4930973;29;20403;-71
2021/09/10 00:54:43;;;;;;;5.40;4.20;;;23.50;55.70;;;;;;4925488;29;20575;-70
2021/09/10 00:57:09;;;;;;;5.00;4.50;;;23.50;55.70;;;;;;4917860;29;21100;-66
2021/09/10 00:59:35;;;;;;;4.80;4.30;;;23.50;55.70;;;;;;4927263;29;20466;-71
2021/09/10 01:02:01;;;;;;;5.20;4.70;;;23.50;55.60;;;;;;4927502;29;20872;-69
2021/09/10 01:04:28;;;;;;;5.13;4.55;;;23.50;56.30;;;;;;4927567;29;20431;-71
2021/09/10 01:06:56;;;;;;;5.30;4.45;;;23.50;56.20;;;;;;4927600;29;20810;-71
2021/09/10 01:09:22;;;;;;;5.00;4.50;;;23.50;55.60;;;;;;4927609;29;20587;-68
2021/09/10 01:11:52;;;;;;;4.97;4.32;;;23.50;55.60;;;;;;4927347;29;20404;-71
2021/09/10 01:14:19;;;;;;;4.90;4.40;;;23.50;55.60;;;;;;4927622;29;20406;-71
2021/09/10 01:16:47;;;;;;;5.00;4.50;;;23.50;55.60;;;;;;4927354;29;20430;-70
2021/09/10 01:19:24;;;;;;;4.60;4.20;;;23.50;55.60;;;;;;4927468;29;20490;-70
2021/09/10 01:21:52;;;;;;;4.70;4.25;;;23.50;55.60;;;;;;4927395;29;20399;-70
2021/09/10 01:24:24;;;;;;;4.80;4.20;;;23.50;55.60;;;;;;4917244;29;20441;-71
2021/09/10 01:26:50;;;;;;;4.67;4.17;;;23.50;55.60;;;;;;4927293;29;20391;-66
2021/09/10 01:29:16;;;;;;;4.88;4.32;;;23.50;55.60;;;;;;4926958;29;20423;-70
2021/09/10 01:31:41;;;;;;;4.63;4.22;;;23.50;56.20;;;;;;4926755;29;20972;-70
2021/09/10 01:34:07;;;;;;;4.77;4.30;;;23.50;55.60;;;;;;4925591;29;20411;-71
2021/09/10 01:36:33;;;;;;;5.10;4.60;;;23.50;55.60;;;;;;4926039;29;20904;-70
2021/09/10 01:38:58;;;;;;;5.00;4.50;;;23.50;55.60;;;;;;4927135;29;20408;-70
2021/09/10 01:41:24;;;;;;;5.00;4.50;;;23.50;55.60;;;;;;4927050;29;20391;-71
2021/09/10 01:43:50;;;;;;;5.10;4.60;;;23.40;55.50;;;;;;4926748;29;20457;-70
2021/09/10 01:46:16;;;;;;;4.93;4.43;;;23.40;55.50;;;;;;4927063;29;20388;-68
2021/09/10 01:48:41;;;;;;;5.30;4.45;;;23.40;55.50;;;;;;4927242;29;20872;-70
2021/09/10 01:51:07;;;;;;;4.65;4.22;;;23.40;55.50;;;;;;4926972;29;20421;-69
2021/09/10 01:53:33;;;;;;;4.33;3.93;;;23.40;55.50;;;;;;4926806;29;20418;-66
2021/09/10 01:55:58;;;;;;;5.18;4.30;;;23.40;55.50;;;;;;4926675;29;20392;-70
2021/09/10 01:58:24;;;;;;;5.03;4.53;;;23.40;55.50;;;;;;4925403;29;20438;-70
2021/09/10 02:00:50;;;;;;;4.75;4.25;;;23.40;55.50;;;;;;4926965;29;20399;-70
2021/09/10 02:03:16;;;;;;;4.93;4.40;;;23.40;55.50;;;;;;4926748;29;20400;-66
2021/09/10 02:05:41;;;;;;;4.68;4.28;;;23.40;55.50;;;;;;4924760;29;20418;-70
2021/09/10 02:08:07;;;;;;;4.57;4.10;;;23.40;55.50;;;;;;4926571;29;20391;-72
2021/09/10 02:10:33;;;;;;;4.60;4.18;;;23.40;55.50;;;;;;4926733;29;21519;-71
2021/09/10 02:12:58;;;;;;;4.43;4.00;;;23.40;55.50;;;;;;4926308;29;20745;-69
2021/09/10 02:15:24;;;;;;;4.70;4.30;;;23.40;55.50;;;;;;4926629;29;20404;-69
2021/09/10 02:17:50;;;;;;;4.87;4.37;;;23.40;55.50;;;;;;4925622;29;20530;-70
2021/09/10 02:20:15;;;;;;;4.85;4.35;;;23.40;55.50;;;;;;4926396;29;20446;-70
2021/09/10 02:22:41;;;;;;;5.07;4.47;;;23.40;55.50;;;;;;4926464;29;20540;-71
2021/09/10 02:25:07;;;;;;;4.50;4.00;;;23.40;55.50;;;;;;4926590;29;20396;-70
2021/09/10 02:27:33;;;;;;;4.57;4.17;;;23.40;55.50;;;;;;4926255;29;20422;-70
2021/09/10 02:29:58;;;;;;;4.90;4.40;;;23.40;55.50;;;;;;4925848;29;20395;-69
2021/09/10 02:32:24;;;;;;;5.00;4.40;;;23.40;55.50;;;;;;4919854;29;20418;-71
2021/09/10 02:34:50;;;;;;;5.00;4.50;;;23.40;55.40;;;;;;4926079;29;20491;-70
2021/09/10 02:37:16;;;;;;;4.97;4.47;;;23.30;55.40;;;;;;4925928;29;20435;-69
2021/09/10 02:39:41;;;;;;;4.65;4.07;;;23.40;55.50;;;;;;4925677;29;20408;-69
2021/09/10 02:42:07;;;;;;;4.80;4.30;;;23.30;55.40;;;;;;4926184;29;20813;-68
2021/09/10 02:44:32;;;;;;;4.80;4.30;;;23.30;55.40;;;;;;4925944;29;20486;-70
2021/09/10 02:46:58;;;;;;;4.68;4.20;;;23.30;55.40;;;;;;4926157;29;20406;-71
2021/09/10 02:49:25;;;;;;;4.70;4.30;;;23.30;55.40;;;;;;4925923;29;20396;-70
2021/09/10 02:51:51;;;;;;;4.50;4.10;;;23.30;55.40;;;;;;4925335;29;20404;-70
2021/09/10 02:54:16;;;;;;;4.95;4.40;;;23.30;55.30;;;;;;4925923;29;20399;-71
2021/09/10 02:56:42;;;;;;;4.80;4.30;;;23.30;55.30;;;;;;4925994;29;20478;-71
2021/09/10 02:59:08;;;;;;;4.53;4.03;;;23.30;55.40;;;;;;4924407;29;20554;-69
2021/09/10 03:01:33;;;;;;;4.47;4.00;;;23.30;55.30;;;;;;4925477;29;20872;-71
2021/09/10 03:03:59;;;;;;;4.60;4.10;;;23.30;55.30;;;;;;4925693;29;20403;-70
2021/09/10 03:06:24;;;;;;;4.50;4.07;;;23.30;55.40;;;;;;4925308;29;20875;-69
2021/09/10 03:08:50;;;;;;;4.47;4.07;;;23.30;55.50;;;;;;4925911;29;20881;-70
2021/09/10 03:11:16;;;;;;;4.72;4.10;;;23.30;55.50;;;;;;4925475;29;20396;-70
2021/09/10 03:13:41;;;;;;;4.83;4.17;;;23.30;55.90;;;;;;4925164;29;20471;-69
2021/09/10 03:16:07;;;;;;;5.22;3.97;;;23.30;55.80;;;;;;4925193;29;20909;-70
2021/09/10 03:18:33;;;;;;;5.77;4.27;;;23.30;55.70;;;;;;4925274;29;20490;-69
2021/09/10 03:20:59;;;;;;;4.82;4.20;;;23.30;55.70;;;;;;4926166;29;20392;-69
2021/09/10 03:23:25;;;;;;;5.20;4.07;;;23.30;56.30;;;;;;4925438;29;20776;-68
2021/09/10 03:25:50;;;;;;;5.28;4.22;;;23.40;57.70;;;;;;4913057;29;20399;-71
2021/09/10 03:28:16;;;;;;;6.20;4.17;;;23.40;56.00;;;;;;4925390;29;20428;-69
2021/09/10 03:30:42;;;;;;;5.68;4.07;;;23.40;58.20;;;;;;4925591;29;20415;-71
2021/09/10 03:33:07;;;;;;;5.97;4.20;;;23.50;57.60;;;;;;4925445;29;20435;-68
2021/09/10 03:35:33;;;;;;;6.45;4.30;;;23.50;58.20;;;;;;4923639;29;20772;-68
2021/09/10 03:37:58;;;;;;;7.57;4.23;;;23.50;58.00;;;;;;4909734;29;20579;-71
2021/09/10 03:40:25;;;;;;;4.60;4.00;;;23.50;58.10;;;;;;4925117;29;20409;-71
2021/09/10 03:42:51;;;;;;;7.78;3.92;;;23.50;57.60;;;;;;4923087;29;20399;-69
2021/09/10 03:45:17;;;;;;;5.55;4.35;;;23.50;57.40;;;;;;4923431;29;20408;-70
2021/09/10 03:47:42;;;;;;;4.73;4.00;;;23.50;57.50;;;;;;4924634;29;20414;-72
2021/09/10 03:50:09;;;;;;;4.82;4.00;;;23.50;56.80;;;;;;4939549;29;20952;-71
2021/09/10 03:52:34;;;;;;;5.03;4.03;;;23.50;56.50;;;;;;4924923;29;20423;-71
2021/09/10 03:55:00;;;;;;;4.23;3.83;;;23.50;56.30;;;;;;4924794;29;20885;-68
2021/09/10 03:57:26;;;;;;;5.10;4.30;;;23.40;56.00;;;;;;4923840;29;20850;-70
2021/09/10 03:59:51;;;;;;;5.50;4.15;;;23.40;56.20;;;;;;4924121;29;21126;-71
2021/09/10 04:02:17;;;;;;;4.50;3.97;;;23.40;56.20;;;;;;4925479;29;20479;-70
2021/09/10 04:04:42;;;;;;;5.32;4.05;;;23.40;56.30;;;;;;4925660;29;20478;-71
2021/09/10 04:07:09;;;;;;;4.43;4.00;;;23.40;56.10;;;;;;4925586;29;20915;-69
2021/09/10 04:09:35;;;;;;;5.15;3.72;;;23.40;56.20;;;;;;4925416;29;20408;-70
2021/09/10 04:12:00;;;;;;;4.90;3.90;;;23.40;56.00;;;;;;4925821;29;20422;-71
2021/09/10 04:14:26;;;;;;;3.97;3.60;;;23.40;55.90;;;;;;4925577;29;20395;-67
2021/09/10 04:16:52;;;;;;;5.10;3.93;;;23.40;56.00;;;;;;4925313;29;20766;-71
2021/09/10 04:19:17;;;;;;;6.67;3.90;;;23.40;55.90;;;;;;4925625;29;20551;-71
2021/09/10 04:21:43;;;;;;;4.40;3.95;;;23.40;55.80;;;;;;4923250;29;20872;-68
2021/09/10 04:24:09;;;;;;;4.70;3.93;;;23.40;55.80;;;;;;4924257;29;20892;-69
2021/09/10 04:26:35;;;;;;;4.20;3.60;;;23.40;55.80;;;;;;4924382;29;20935;-70
2021/09/10 04:29:00;;;;;;;9.20;4.65;;;23.40;55.70;;;;;;4927238;29;20534;-69
2021/09/10 04:31:26;;;;;;;7.17;4.17;;;23.40;55.70;;;;;;4927203;29;20391;-69
2021/09/10 04:33:52;;;;;;;10.43;4.40;;;23.40;55.50;;;;;;4927751;29;20407;-71
2021/09/10 04:36:17;;;;;;;9.85;3.85;;;23.40;55.60;;;;;;4928192;29;20391;-70
2021/09/10 04:38:43;;;;;;;5.33;4.00;;;23.40;55.50;;;;;;4927966;29;20470;-68
2021/09/10 04:41:09;;;;;;;8.07;3.92;;;23.30;55.70;;;;;;4928213;29;20490;-70
2021/09/10 04:43:35;;;;;;;6.70;4.20;;;23.30;55.80;;;;;;4928334;29;20446;-71
2021/09/10 04:46:00;;;;;;;6.60;4.00;;;23.40;55.70;;;;;;4928084;29;20387;-72
2021/09/10 04:48:26;;;;;;;6.75;3.65;;;23.40;55.80;;;;;;4928140;29;20395;-70
2021/09/10 04:50:52;;;;;;;4.88;3.53;;;23.30;55.80;;;;;;4926840;29;20832;-70
2021/09/10 04:53:17;;;;;;;5.97;3.80;;;23.30;55.70;;;;;;4927931;29;20395;-70
2021/09/10 04:55:43;;;;;;;6.13;4.18;;;23.30;55.60;;;;;;4927916;29;20466;-70
2021/09/10 04:58:09;;;;;;;4.50;3.60;;;23.30;55.50;;;;;;4927568;29;20491;-70
2021/09/10 05:00:34;;;;;;;6.45;3.80;;;23.30;55.50;;;;;;4927866;29;20457;-68
2021/09/10 05:03:00;;;;;;;4.22;3.55;;;23.30;55.50;;;;;;4927898;29;20404;-68
2021/09/10 05:05:26;;;;;;;4.53;3.85;;;23.30;55.40;;;;;;4928015;29;20417;-65
2021/09/10 05:07:51;;;;;;;4.20;3.80;;;23.30;55.40;;;;;;4927506;29;20896;-71
2021/09/10 05:10:17;;;;;;;4.40;3.70;;;23.30;55.40;;;;;;4927501;29;20400;-68
2021/09/10 05:12:43;;;;;;;4.45;3.50;;;23.30;55.30;;;;;;4931855;29;20962;-71
2021/09/10 05:15:08;;;;;;;5.07;4.00;;;23.30;55.30;;;;;;4927554;29;20906;-71
2021/09/10 05:17:34;;;;;;;6.28;4.30;;;23.30;55.00;;;;;;4927523;29;20434;-70
2021/09/10 05:20:01;;;;;;;6.30;4.60;;;23.30;54.50;;;;;;4927078;29;20403;-69
2021/09/10 05:22:26;;;;;;;8.23;4.60;;;23.20;54.20;;;;;;4927377;29;21232;-67
2021/09/10 05:24:52;;;;;;;6.80;4.43;;;23.20;54.10;;;;;;4927717;29;21480;-71
2021/09/10 05:27:18;;;;;;;6.47;4.32;;;23.20;53.90;;;;;;4927495;29;21010;-66
2021/09/10 05:29:44;;;;;;;5.70;4.40;;;23.20;53.90;;;;;;4927800;28;20400;-72
2021/09/10 05:32:09;;;;;;;6.10;4.70;;;23.10;53.90;;;;;;4927104;29;20493;-70
2021/09/10 05:34:35;;;;;;;5.35;3.97;;;23.10;53.90;;;;;;4927092;29;20399;-71
2021/09/10 05:37:01;;;;;;;7.60;4.45;;;23.10;53.60;;;;;;4926045;29;20426;-72
2021/09/10 05:39:26;;;;;;;5.93;4.37;;;23.10;53.50;;;;;;4925711;29;20817;-71
2021/09/10 05:41:52;;;;;;;5.65;4.13;;;23.10;53.50;;;;;;4926013;29;20388;-70
2021/09/10 05:44:18;;;;;;;6.90;4.40;;;23.10;53.30;;;;;;4925902;29;20415;-67
2021/09/10 05:46:44;;;;;;;5.78;4.40;;;23.10;53.10;;;;;;4927198;29;20434;-71
2021/09/10 05:49:10;;;;;;;5.45;3.88;;;23.10;53.00;;;;;;4925433;29;20416;-68
2021/09/10 05:51:36;;;;;;;6.30;4.00;;;23.10;53.00;;;;;;4927092;29;20498;-71
2021/09/10 05:54:02;;;;;;;5.93;4.30;;;23.10;52.80;;;;;;4926216;29;20432;-71
2021/09/10 05:56:28;;;;;;;4.77;3.73;;;23.00;52.90;;;;;;4926947;29;20506;-72
2021/09/10 05:58:53;;;;;;;5.30;3.90;;;23.00;53.00;;;;;;4926668;29;20850;-72
2021/09/10 06:01:19;;;;;;;9.20;4.07;;;23.00;53.00;;;;;;4926843;29;20443;-71
2021/09/10 06:03:45;;;;;;;5.00;3.80;;;23.00;53.10;;;;;;4926360;29;20407;-68
2021/09/10 06:06:10;;;;;;;5.80;3.70;;;23.00;53.30;;;;;;4925330;29;20416;-71
2021/09/10 06:08:37;;;;;;;5.03;3.70;;;23.00;53.30;;;;;;4926919;29;20431;-71
2021/09/10 06:11:04;;;;;;;6.43;3.78;;;23.10;53.40;;;;;;4925354;29;20890;-70
2021/09/10 06:13:29;;;;;;;5.32;3.60;;;23.00;53.50;;;;;;4925225;29;20415;-72
2021/09/10 06:15:55;;;;;;;5.20;3.60;;;23.00;53.50;;;;;;4924698;29;20396;-72
2021/09/10 06:18:21;;;;;;;5.03;3.55;;;23.00;53.60;;;;;;4925051;29;20440;-71
2021/09/10 06:20:46;;;;;;;4.50;3.27;;;23.00;53.70;;;;;;4940989;29;20395;-67
2021/09/10 06:23:12;;;;;;;4.53;3.40;;;23.00;53.70;;;;;;4926375;29;20431;-68
2021/09/10 06:25:37;;;;;;;4.43;3.50;;;23.00;53.80;;;;;;4925115;29;20430;-71
2021/09/10 06:28:03;;;;;;;4.77;3.50;;;23.00;53.90;;;;;;4926135;29;20475;-71
2021/09/10 06:30:29;;;;;;;4.28;3.53;;;23.00;53.90;;;;;;4926363;29;20458;-71
2021/09/10 06:32:55;;;;;;;5.23;3.70;;;23.00;53.90;;;;;;4940838;29;20446;-69
2021/09/10 06:35:20;;;;;;;4.88;3.90;;;23.00;54.00;;;;;;4926299;29;20469;-71
2021/09/10 06:37:46;;;;;;;4.18;3.50;;;23.00;54.10;;;;;;4925674;29;20526;-67
2021/09/10 06:40:12;;;;;;;4.00;3.60;;;23.00;54.00;;;;;;4925918;29;20402;-72
2021/09/10 06:42:39;;;;;;;4.40;3.35;;;23.00;54.00;;;;;;4925744;29;20395;-71
2021/09/10 06:45:06;;;;;;;4.07;3.67;;;23.00;54.10;;;;;;4926003;29;20901;-70
2021/09/10 06:47:31;;;;;;;4.18;3.40;;;23.00;54.20;;;;;;4924705;29;20455;-71
2021/09/10 06:49:57;;;;;;;4.78;3.40;;;23.00;54.10;;;;;;4925441;29;20474;-66
2021/09/10 06:52:23;;;;;;;4.25;3.38;;;23.00;54.20;;;;;;4925206;29;20419;-71
2021/09/10 06:54:48;;;;;;;4.10;3.50;;;23.00;54.20;;;;;;4925969;29;20944;-71
2021/09/10 06:57:14;;;;;;;4.07;3.27;;;23.00;54.20;;;;;;4925896;29;20553;-71
2021/09/10 06:59:40;;;;;;;4.17;3.37;;;23.00;54.20;;;;;;4925385;29;20801;-71
2021/09/10 07:02:06;;;;;;;4.20;3.58;;;23.00;54.20;;;;;;4925097;29;20419;-69
2021/09/10 07:04:31;;;;;;;4.13;3.17;;;23.00;54.30;;;;;;4925634;29;20817;-70
2021/09/10 07:06:57;;;;;;;4.13;3.33;;;23.00;54.30;;;;;;4925538;29;20400;-71
2021/09/10 07:09:23;;;;;;;4.18;3.47;;;23.00;54.30;;;;;;4925666;29;20400;-67
2021/09/10 07:11:48;;;;;;;4.35;3.28;;;23.00;54.30;;;;;;4925374;29;20788;-67
2021/09/10 07:14:16;;;;;;;3.70;3.33;;;23.00;54.30;;;;;;4925246;29;20404;-71
2021/09/10 07:16:42;;;;;;;4.22;3.40;;;23.00;54.30;;;;;;4925363;29;20430;-72
2021/09/10 07:19:07;;;;;;;3.73;3.37;;;23.10;54.30;;;;;;4925636;29;20404;-71
2021/09/10 07:21:33;;;;;;;3.95;3.30;;;23.10;54.30;;;;;;4925293;29;20404;-69
2021/09/10 07:23:58;;;;;;;4.40;3.43;;;23.10;54.30;;;;;;4925267;29;20422;-68
2021/09/10 07:26:25;;;;;;;3.63;3.10;;;23.10;54.30;;;;;;4925362;29;20474;-71
2021/09/10 07:28:50;;;;;;;3.90;3.40;;;23.10;54.40;;;;;;4925313;29;20405;-67
2021/09/10 07:31:16;;;;;;;3.97;3.30;;;23.10;54.30;;;;;;4925439;29;20400;-71
2021/09/10 07:33:43;;;;;;;3.80;3.40;;;23.10;54.30;;;;;;4925259;29;20407;-71
2021/09/10 07:36:09;;;;;;;4.28;3.33;;;23.10;54.30;;;;;;4925060;29;20400;-72
2021/09/10 07:38:35;;;;;;;3.72;3.30;;;23.10;54.30;;;;;;4923724;29;20431;-70
2021/09/10 07:41:03;;;;;;;3.67;3.27;;;23.10;54.30;;;;;;4925542;29;20457;-72
2021/09/10 07:43:28;;;;;;;3.83;3.17;;;23.10;54.30;;;;;;4925572;29;20435;-71
2021/09/10 07:45:54;;;;;;;4.37;3.30;;;23.10;54.30;;;;;;4924585;29;20709;-66
2021/09/10 07:48:20;;;;;;;3.28;2.95;;;23.10;54.30;;;;;;4925392;29;20514;-69
2021/09/10 07:50:45;;;;;;;4.37;2.97;;;23.10;54.30;;;;;;4923952;29;20764;-72
2021/09/10 07:53:11;;;;;;;4.38;3.47;;;23.10;54.30;;;;;;4925094;29;20408;-72
2021/09/10 07:55:39;;;;;;;3.78;3.03;;;23.10;54.30;;;;;;4925158;29;20402;-71
2021/09/10 07:58:05;;;;;;;3.72;3.30;;;23.10;54.30;;;;;;4924430;29;20508;-71
2021/09/10 08:00:31;;;;;;;3.72;3.20;;;23.10;54.30;;;;;;4925240;29;20483;-72
2021/09/10 08:02:56;;;;;;;3.85;3.20;;;23.10;54.30;;;;;;4926240;29;20399;-71
2021/09/10 08:05:23;;;;;;;4.77;3.27;;;23.20;54.30;;;;;;4929130;29;20427;-71
2021/09/10 08:07:49;;;;;;;3.85;3.25;;;23.20;54.30;;;;;;4927432;29;20896;-71
2021/09/10 08:10:17;;;;;;;4.55;3.35;;;23.20;54.30;;;;;;4928626;29;20423;-71
2021/09/10 08:12:47;;;;;;;4.80;3.10;;;23.20;54.30;;;;;;4927526;29;20419;-70
2021/09/10 08:15:16;;;;;;;3.83;3.13;;;23.10;54.20;;;;;;4928903;29;20442;-71
2021/09/10 08:17:42;;;;;;;4.03;3.00;;;23.20;54.20;;;;;;4920231;29;20451;-72
2021/09/10 08:20:10;;;;;;;3.47;3.17;;;23.20;54.30;;;;;;4919096;29;20411;-72
2021/09/10 08:22:36;;;;;;;4.22;3.20;;;23.20;54.20;;;;;;4928568;29;20947;-67
2021/09/10 08:25:07;;;;;;;4.63;3.20;;;23.20;54.10;;;;;;4928912;29;20908;-72
2021/09/10 08:27:33;;;;;;;3.22;2.92;;;23.20;54.10;;;;;;4928657;29;20430;-71
2021/09/10 08:29:59;;;;;;;4.20;3.20;;;23.20;54.10;;;;;;4927834;29;20539;-69
2021/09/10 08:32:26;;;;;;;4.83;3.20;;;23.20;54.10;;;;;;4943277;29;20817;-72
2021/09/10 08:34:52;;;;;;;4.30;3.15;;;23.20;54.10;;;;;;4928539;29;20547;-70
2021/09/10 08:37:18;;;;;;;3.67;3.20;;;23.20;54.00;;;;;;4928193;29;20424;-67
2021/09/10 08:39:44;;;;;;;4.07;3.40;;;23.20;54.10;;;;;;4928377;29;20407;-70
2021/09/10 08:42:10;;;;;;;5.57;3.33;;;23.20;54.10;;;;;;4927729;29;20408;-71
2021/09/10 08:44:41;;;;;;;4.32;3.42;;;23.20;54.20;;;;;;4928420;29;20415;-68
2021/09/10 08:47:09;;;;;;;5.35;3.45;;;23.20;54.20;;;;;;4927844;29;20411;-67
2021/09/10 08:49:35;;;;;;;5.43;3.20;;;23.20;54.20;;;;;;4915924;29;20399;-70
2021/09/10 08:52:02;;;;;;;7.27;3.40;;;23.20;54.20;;;;;;4927545;29;20405;-68
2021/09/10 08:54:28;;;;;;;6.80;3.75;;;23.20;54.30;;;;;;4927972;29;20391;-69
2021/09/10 08:56:54;;;;;;;5.57;3.47;;;23.20;54.40;;;;;;4928044;29;20833;-71
2021/09/10 08:59:21;;;;;;;6.87;3.87;;;23.20;54.40;;;;;;4928129;29;20451;-67
2021/09/10 09:01:52;;;;;;;6.38;4.00;;;23.30;54.30;;;;;;4928205;29;20427;-70
2021/09/10 09:04:19;;;;;;;5.82;4.00;;;23.30;54.30;;;;;;4927689;29;20483;-67
2021/09/10 09:06:55;;;;;;;7.15;4.20;;;23.30;54.20;;;;;;4911455;29;20904;-71
2021/09/10 09:09:33;;;;;;;5.93;3.90;;;23.30;54.30;;;;;;4927838;29;20411;-71
2021/09/10 09:12:22;;;;;;;6.70;3.85;;;23.30;54.40;;;;;;4930544;29;20427;-66
2021/09/10 09:14:54;;;;;;;6.80;4.40;;;23.30;54.40;;;;;;4926606;29;20981;-66
2021/09/10 09:17:35;;;;;;;7.07;3.78;;;23.30;54.50;;;;;;4927242;29;20423;-68
2021/09/10 09:20:25;;;;;;;6.22;3.45;;;23.20;54.50;;;;;;4925939;29;20407;-72
2021/09/10 09:22:56;;;;;;;5.53;3.80;;;23.30;54.70;;;;;;4927722;29;20474;-71
2021/09/10 09:25:29;;;;;;;5.57;3.60;;;23.30;54.90;;;;;;4927158;29;20446;-71
2021/09/10 09:28:14;;;;;;;6.07;3.72;;;23.40;55.00;;;;;;4926994;29;20407;-68
2021/09/10 09:30:40;;;;;;;5.40;3.38;;;23.30;55.20;;;;;;4928012;29;20407;-71
2021/09/10 09:33:06;;;;;;;4.38;3.53;;;23.40;54.90;;;;;;4927205;28;20494;-72
2021/09/10 09:35:33;;;;;;;5.53;3.80;;;23.30;54.80;;;;;;4927342;29;20415;-72
2021/09/10 09:37:59;;;;;;;7.80;3.67;;;23.30;54.80;;;;;;4927470;29;20785;-71
2021/09/10 09:40:33;;;;;;;5.40;3.60;;;23.40;54.90;;;;;;4927265;29;21201;-68
2021/09/10 09:42:58;;;;;;;5.20;3.75;;;23.40;54.90;;;;;;4927783;29;20415;-70
2021/09/10 09:45:24;;;;;;;5.77;3.60;;;23.40;54.90;;;;;;4926838;29;20407;-70
2021/09/10 09:47:51;;;;;;;7.90;3.88;;;23.40;55.00;;;;;;4926927;29;20410;-71
2021/09/10 09:50:20;;;;;;;5.60;3.50;;;23.40;55.00;;;;;;4926558;29;20463;-70
2021/09/10 09:52:51;;;;;;;6.35;3.95;;;23.40;55.00;;;;;;4927017;29;20415;-69
2021/09/10 09:55:17;;;;;;;5.35;3.65;;;23.40;55.00;;;;;;4926936;29;20442;-71
2021/09/10 09:57:44;;;;;;;5.82;3.72;;;23.40;55.00;;;;;;4927047;29;20431;-70
2021/09/10 10:00:10;;;;;;;5.53;3.67;;;23.40;55.00;;;;;;4914027;29;20407;-71
2021/09/10 10:02:37;;;;;;;7.93;4.05;;;23.40;54.80;;;;;;4926586;29;20426;-71
2021/09/10 10:05:04;;;;;;;4.80;3.70;;;23.40;54.70;;;;;;4926790;29;20395;-71
2021/09/10 10:07:43;;;;;;;4.97;3.70;;;23.40;54.70;;;;;;4926141;29;20411;-70
2021/09/10 10:10:16;;;;;;;7.28;4.20;;;23.40;54.70;;;;;;4925557;29;20404;-71
2021/09/10 10:12:42;;;;;;;6.63;4.20;;;23.40;54.70;;;;;;4909869;29;20419;-72
2021/09/10 10:15:30;;;;;;;5.40;4.00;;;23.50;54.80;;;;;;4925369;29;20900;-70
2021/09/10 10:17:57;;;;;;;5.85;4.30;;;23.50;54.60;;;;;;4924894;29;20440;-70
2021/09/10 10:20:45;;;;;;;6.30;3.97;;;23.50;54.50;;;;;;4925304;29;20400;-69
2021/09/10 10:23:41;;;;;;;8.65;4.43;;;23.50;54.60;;;;;;4926286;29;20400;-70
2021/09/10 10:26:13;;;;;;;5.60;4.27;;;23.50;54.80;;;;;;4924499;29;20404;-68
2021/09/10 10:28:54;;;;;;;5.72;4.03;;;23.50;55.10;;;;;;4925504;29;20395;-70
2021/09/10 10:31:58;;;;;;;7.38;4.20;;;23.50;56.20;;;;;;4924248;29;20431;-71
2021/09/10 10:34:25;;;;;;;6.57;4.25;;;23.60;56.10;;;;;;4925379;29;20482;-69
2021/09/10 10:36:51;;;;;;;5.57;4.43;;;23.60;57.00;;;;;;4926293;29;20397;-70
2021/09/10 10:39:26;;;;;;;8.30;4.67;;;23.60;57.30;;;;;;4926504;29;20415;-71
2021/09/10 10:41:58;;;;;;;7.28;4.20;;;23.60;56.60;;;;;;4926767;29;20419;-69
2021/09/10 10:44:32;;;;;;;10.50;5.03;;;23.60;57.80;;;;;;4926004;29;20412;-71
2021/09/10 10:47:10;;;;;;;10.73;4.75;;;23.80;59.40;;;;;;4925804;29;20404;-68
2021/09/10 10:49:35;;;;;;;8.70;4.68;;;24.00;60.20;;;;;;4925797;29;20777;-68
2021/09/10 10:52:22;;;;;;;6.60;5.00;;;24.00;60.30;;;;;;4925240;29;20395;-69
2021/09/10 10:55:19;;;;;;;9.50;5.03;;;24.10;60.50;;;;;;4925398;29;20407;-71
2021/09/10 10:58:15;;;;;;;6.90;4.90;;;24.10;60.00;;;;;;4925567;29;20458;-71
2021/09/10 11:01:03;;;;;;;6.72;4.35;;;24.20;60.40;;;;;;4925439;29;20773;-68
2021/09/10 11:03:31;;;;;;;6.57;4.82;;;24.20;60.20;;;;;;4926613;29;20395;-72
2021/09/10 11:05:57;;;;;;;8.98;5.35;;;24.20;60.60;;;;;;4925231;29;20407;-69
2021/09/10 11:08:36;;;;;;;9.43;5.00;;;24.20;60.50;;;;;;4925195;29;20439;-70
2021/09/10 11:11:03;;;;;;;8.73;4.63;;;24.20;60.90;;;;;;4924952;29;20900;-69
2021/09/10 11:13:29;;;;;;;9.40;5.07;;;24.30;61.30;;;;;;4925802;29;20469;-67
2021/09/10 11:15:57;;;;;;;7.37;4.73;;;24.30;60.90;;;;;;4925158;29;20490;-72
2021/09/10 11:18:25;;;;;;;6.70;4.63;;;24.30;60.40;;;;;;4924562;29;20526;-67
2021/09/10 11:20:53;;;;;;;8.03;4.70;;;24.20;58.30;;;;;;4925859;29;20883;-69
2021/09/10 11:23:28;;;;;;;6.72;4.57;;;24.20;59.20;;;;;;4925620;29;20427;-69
2021/09/10 11:25:57;;;;;;;5.80;4.50;;;24.20;58.20;;;;;;4925356;29;20395;-70
2021/09/10 11:28:29;;;;;;;6.55;4.53;;;24.20;58.20;;;;;;4924951;29;20498;-68
2021/09/10 11:30:55;;;;;;;7.53;4.47;;;24.10;56.90;;;;;;4924588;29;20406;-69
2021/09/10 11:33:22;;;;;;;6.40;4.72;;;24.10;57.90;;;;;;4925376;29;20404;-68
2021/09/10 11:35:50;;;;;;;5.65;4.63;;;24.10;57.70;;;;;;4925280;29;20418;-70
2021/09/10 11:38:22;;;;;;;5.77;4.40;;;24.20;57.70;;;;;;4938394;28;20517;-70
2021/09/10 11:40:53;;;;;;;6.82;4.40;;;24.20;57.50;;;;;;4925547;29;20399;-71
2021/09/10 11:43:29;;;;;;;5.40;4.20;;;24.20;57.30;;;;;;4925388;29;20414;-67
2021/09/10 11:45:56;;;;;;;6.95;4.45;;;24.20;57.00;;;;;;4924961;29;20817;-72
2021/09/10 11:48:32;;;;;;;6.37;4.30;;;24.20;56.40;;;;;;4939211;28;20482;-69
2021/09/10 11:51:06;;;;;;;6.88;4.43;;;24.20;56.80;;;;;;4923936;29;20493;-71
2021/09/10 11:53:47;;;;;;;6.90;4.20;;;24.20;56.60;;;;;;4913270;29;20407;-70
2021/09/10 11:56:19;;;;;;;5.10;4.32;;;24.20;56.40;;;;;;4924414;29;20765;-70
2021/09/10 11:58:53;;;;;;;4.97;4.47;;;24.20;56.90;;;;;;4923808;29;20427;-71
2021/09/10 12:01:39;;;;;;;5.20;4.28;;;24.20;56.40;;;;;;4924843;29;20399;-68
2021/09/10 12:04:23;;;;;;;5.15;4.10;;;24.10;56.20;;;;;;4923167;29;20410;-70
2021/09/10 12:06:52;;;;;;;6.30;4.22;;;24.20;56.10;;;;;;4939034;28;20490;-70
2021/09/10 12:09:32;;;;;;;4.97;4.18;;;24.20;56.40;;;;;;4924849;29;20442;-69
2021/09/10 12:12:14;;;;;;;5.20;4.28;;;24.20;56.00;;;;;;4924413;29;20417;-70
2021/09/10 12:14:52;;;;;;;6.22;4.30;;;24.20;56.00;;;;;;4925470;29;20442;-70
2021/09/10 12:17:24;;;;;;;7.18;4.25;;;24.20;56.20;;;;;;4924164;29;20427;-69
2021/09/10 12:19:59;;;;;;;7.70;5.15;;;24.20;56.40;;;;;;4924634;29;20437;-69
2021/09/10 12:22:45;;;;;;;16.63;12.60;;;24.20;56.50;;;;;;4924114;29;20879;-68
2021/09/10 12:25:21;;;;;;;15.32;13.73;;;24.20;56.50;;;;;;4914085;29;20415;-69
2021/09/10 12:27:52;;;;;;;7.63;6.80;;;24.20;56.30;;;;;;4923223;29;20470;-70
2021/09/10 12:30:21;;;;;;;6.78;6.00;;;24.20;56.40;;;;;;4922802;29;20407;-69
2021/09/10 12:32:47;;;;;;;8.75;7.28;;;24.20;56.40;;;;;;4923344;29;20427;-69
2021/09/10 12:35:13;;;;;;;10.20;7.57;;;24.20;56.60;;;;;;4923593;29;20396;-68
2021/09/10 12:37:39;;;;;;;29.48;12.93;;;24.20;57.10;;;;;;4923555;29;20423;-68
2021/09/10 12:40:07;;;;;;;14.20;8.77;;;24.20;56.90;;;;;;4923976;29;20915;-68
2021/09/10 12:42:33;;;;;;;13.10;8.07;;;24.20;56.90;;;;;;4923314;29;20396;-70
2021/09/10 12:44:59;;;;;;;12.20;7.38;;;24.20;56.80;;;;;;4924396;29;20407;-70
2021/09/10 12:47:25;;;;;;;10.63;7.70;;;24.20;56.80;;;;;;4924579;29;20414;-68
2021/09/10 12:49:51;;;;;;;12.57;7.82;;;24.20;56.70;;;;;;4925674;29;20426;-69